createdAt,value
2018-11-28T00:06:04.473Z,28.80
2018-11-28T00:16:19.447Z,26.00
2018-11-28T00:26:34.999Z,30.55
2018-11-28T00:36:50.705Z,32.65
2018-11-28T00:47:06.465Z,28.03
2018-11-28T00:57:21.273Z,31.57
2018-11-28T01:07:36.005Z,32.23
2018-11-28T01:17:51.899Z,28.40
2018-11-28T01:28:06.663Z,34.13
2018-11-28T01:38:21.770Z,29.47
2018-11-28T01:48:37.646Z,31.07
2018-11-28T01:58:52.514Z,32.57
2018-11-28T02:09:08.333Z,36.77
2018-11-28T02:19:23.544Z,36.63
2018-11-28T02:29:38.395Z,33.47
2018-11-28T02:39:53.382Z,33.87
2018-11-28T02:50:09.606Z,36.63
2018-11-28T03:00:25.952Z,36.63
2018-11-28T03:10:41.613Z,37.10
2018-11-28T03:20:57.095Z,37.87
2018-11-28T03:31:13.560Z,36.20
2018-11-28T03:41:29.818Z,38.37
2018-11-28T03:51:45.352Z,35.53
2018-11-28T04:02:00.796Z,36.50
2018-11-28T04:12:21.106Z,36.70
2018-11-28T04:22:36.378Z,36.13
2018-11-28T04:32:52.429Z,33.47
2018-11-28T04:43:07.619Z,37.23
2018-11-28T04:53:22.584Z,36.47
2018-11-28T05:03:38.576Z,35.07
2018-11-28T05:13:53.786Z,36.47
2018-11-28T05:24:09.241Z,37.23
2018-11-28T05:34:24.833Z,34.57
2018-11-28T05:44:41.010Z,39.23
2018-11-28T05:54:56.678Z,37.40
2018-11-28T06:05:12.608Z,37.43
2018-11-28T06:15:27.748Z,34.87
2018-11-28T06:25:43.188Z,35.83
2018-11-28T06:35:58.555Z,42.07
2018-11-28T06:46:14.434Z,40.80
2018-11-28T06:56:29.591Z,33.13
2018-11-28T07:06:45.864Z,36.00
2018-11-28T07:17:03.599Z,35.70
2018-11-28T07:27:21.739Z,38.43
2018-11-28T07:37:38.755Z,37.47
2018-11-28T07:47:54.083Z,39.73
2018-11-28T07:58:11.909Z,35.20
2018-11-28T08:08:28.179Z,37.80
2018-11-28T08:18:44.261Z,40.87
2018-11-28T08:29:00.219Z,36.53
2018-11-28T08:39:15.371Z,40.48
2018-11-28T08:49:31.431Z,38.17
2018-11-28T08:59:47.179Z,36.73
2018-11-28T09:20:37.790Z,35.80
2018-11-28T09:30:54.509Z,40.50
2018-11-28T09:41:10.215Z,38.30
2018-11-28T10:02:01.158Z,35.53
2018-11-28T10:12:19.792Z,34.13
2018-11-28T10:22:34.148Z,32.47
2018-11-28T10:32:50.134Z,32.77
2018-11-28T10:43:05.858Z,32.73
2018-11-28T10:53:22.147Z,32.90
2018-11-28T11:03:42.862Z,30.90
2018-11-28T11:14:03.978Z,29.37
2018-11-28T11:24:19.388Z,31.13
2018-11-28T11:34:36.401Z,29.23
2018-11-28T11:44:52.343Z,29.43
2018-11-28T11:55:15.618Z,28.90
2018-11-28T12:05:31.760Z,23.30
2018-11-28T12:15:50.633Z,22.60
2018-11-28T12:26:08.914Z,21.23
2018-11-28T12:36:26.818Z,21.17
2018-11-28T12:46:43.971Z,17.47
2018-11-28T12:57:00.924Z,17.43
2018-11-28T13:07:20.862Z,19.53
2018-11-28T13:17:36.979Z,17.53
2018-11-28T13:27:53.170Z,19.40
2018-11-28T13:38:09.978Z,15.43
2018-11-28T13:48:26.188Z,14.30
2018-11-28T13:58:42.587Z,13.37
2018-11-28T14:09:00.053Z,14.03
2018-11-28T14:19:16.910Z,12.80
2018-11-28T14:29:32.374Z,13.27
2018-11-28T14:39:48.446Z,14.33
2018-11-28T15:00:39.399Z,15.23
2018-11-28T15:10:59.016Z,13.67
2018-11-28T15:21:20.761Z,13.20
2018-11-28T15:31:37.580Z,12.30
2018-11-28T15:41:52.768Z,12.50
2018-11-28T15:52:08.076Z,13.60
2018-11-28T16:02:23.022Z,11.33
2018-11-28T16:12:37.974Z,12.35
2018-11-28T16:22:52.830Z,13.17
2018-11-28T16:33:08.706Z,13.48
2018-11-28T16:43:24.077Z,13.07
2018-11-28T16:53:39.816Z,13.00
2018-11-28T17:03:55.452Z,13.15
2018-11-28T17:14:11.057Z,13.73
2018-11-28T17:24:26.402Z,15.00
2018-11-28T17:34:43.363Z,14.53
2018-11-28T17:44:58.952Z,16.00
2018-11-28T17:55:14.762Z,16.03
2018-11-28T18:05:30.687Z,16.57
2018-11-28T18:15:46.858Z,14.90
2018-11-28T18:26:04.618Z,17.20
2018-11-28T18:36:20.418Z,13.60
2018-11-28T18:46:35.216Z,13.13
2018-11-28T18:56:53.001Z,14.67
2018-11-28T19:07:08.130Z,11.23
2018-11-28T19:17:24.459Z,11.53
2018-11-28T19:27:40.223Z,9.87
2018-11-28T19:37:55.526Z,11.80
2018-11-28T19:48:10.830Z,10.00
2018-11-28T19:58:40.379Z,10.23
2018-11-28T20:19:23.748Z,10.13
2018-11-28T20:29:40.203Z,11.70
2018-11-28T20:39:55.994Z,10.67
2018-11-28T20:50:15.354Z,9.07
2018-11-28T21:00:31.026Z,8.77
2018-11-28T21:10:47.303Z,8.88
2018-11-28T21:21:03.697Z,8.10
2018-11-28T21:31:20.010Z,8.60
2018-11-28T21:41:34.842Z,8.83
2018-11-28T21:51:51.016Z,8.83
2018-11-28T22:02:07.210Z,8.67
2018-11-28T22:12:22.243Z,8.70
2018-11-28T22:22:40.203Z,8.60
2018-11-28T22:32:55.305Z,8.33
2018-11-28T22:43:11.114Z,9.00
2018-11-28T22:53:27.848Z,6.97
2018-11-28T23:03:44.004Z,7.50
2018-11-28T23:13:59.645Z,6.87
2018-11-28T23:24:16.791Z,7.17
2018-11-28T23:34:33.653Z,6.43
2018-11-28T23:44:50.441Z,6.80
2018-11-28T23:55:06.640Z,7.30
